Time;durP1;ratioP1;P1;durP2;ratioP2;P2;SDS_P1;SDS_P2;PMS_P1;PMS_P2;Temp;Humidity;BMP_temperature;BMP_pressure;BME280_temperature;BME280_humidity;BME280_pressure;Samples;Min_cycle;Max_cycle;Signal;HPM_P1;HPM_P2
2023/03/28 00:00:11;;;;;;;7.43;1.70;;;1.90;99.90;;;;;;5107845;27;20428;-73
2023/03/28 00:02:37;;;;;;;9.50;1.83;;;2.00;99.90;;;;;;5111602;27;20777;-70
2023/03/28 00:05:03;;;;;;;7.47;1.70;;;2.00;99.90;;;;;;5120969;27;20043;-71
2023/03/28 00:07:29;;;;;;;11.65;2.20;;;2.00;99.90;;;;;;5108356;27;20051;-70
2023/03/28 00:09:56;;;;;;;11.80;2.33;;;2.10;99.90;;;;;;5109322;27;20049;-69
2023/03/28 00:12:22;;;;;;;10.68;2.10;;;2.10;99.90;;;;;;5106408;27;20078;-70
2023/03/28 00:14:48;;;;;;;7.15;1.60;;;2.20;99.90;;;;;;5105302;27;20138;-71
2023/03/28 00:17:16;;;;;;;8.90;1.40;;;2.20;99.90;;;;;;5109582;27;21914;-70
2023/03/28 00:19:45;;;;;;;8.88;1.75;;;2.20;99.90;;;;;;5120371;27;20040;-70
2023/03/28 00:22:11;;;;;;;8.32;1.40;;;2.30;99.90;;;;;;5112354;27;20035;-72
2023/03/28 00:24:37;;;;;;;10.45;1.27;;;2.20;99.90;;;;;;5107619;27;20032;-73
2023/03/28 00:27:06;;;;;;;7.85;1.50;;;2.20;99.90;;;;;;5114521;27;20068;-70
2023/03/28 00:29:32;;;;;;;7.95;1.77;;;2.20;99.90;;;;;;5116860;27;20039;-71
2023/03/28 00:31:58;;;;;;;11.25;1.40;;;2.10;99.90;;;;;;5105926;27;20126;-69
2023/03/28 00:34:24;;;;;;;10.07;1.73;;;2.10;99.90;;;;;;5099890;27;20039;-71
2023/03/28 00:36:52;;;;;;;11.60;1.58;;;2.00;99.90;;;;;;5113843;27;20050;-70
2023/03/28 00:39:18;;;;;;;12.18;2.45;;;2.00;99.90;;;;;;5107541;27;20131;-70
2023/03/28 00:41:44;;;;;;;6.32;1.38;;;2.00;99.90;;;;;;5103778;27;20486;-71
2023/03/28 00:44:50;;;;;;;6.75;1.10;;;1.90;99.90;;;;;;5086054;28;20048;-70
2023/03/28 00:47:16;;;;;;;10.00;1.65;;;1.90;99.90;;;;;;5060014;28;20040;-71
2023/03/28 00:49:45;;;;;;;11.20;1.90;;;1.80;99.90;;;;;;5044610;28;20048;-69
2023/03/28 00:52:14;;;;;;;10.10;1.77;;;1.80;99.90;;;;;;5048197;28;20048;-71
2023/03/28 00:54:40;;;;;;;9.75;1.98;;;1.70;99.90;;;;;;5032810;28;20079;-71
2023/03/28 00:57:08;;;;;;;11.13;1.80;;;1.70;99.90;;;;;;5053741;28;20059;-72
2023/03/28 00:59:36;;;;;;;12.50;2.97;;;1.70;99.90;;;;;;5058178;28;20041;-71
2023/03/28 01:02:02;;;;;;;9.10;1.30;;;1.70;99.90;;;;;;5087120;28;20195;-70
2023/03/28 01:04:40;;;;;;;9.02;1.60;;;1.60;99.90;;;;;;5054050;28;20040;-72
2023/03/28 01:07:06;;;;;;;10.07;1.95;;;1.60;99.90;;;;;;5060909;28;20029;-69
2023/03/28 01:09:32;;;;;;;8.02;1.60;;;1.60;99.90;;;;;;5056262;28;20039;-70
2023/03/28 01:11:58;;;;;;;10.30;1.85;;;1.50;99.90;;;;;;5067204;28;20535;-70
2023/03/28 01:14:27;;;;;;;11.20;1.30;;;1.50;99.90;;;;;;5063607;28;20486;-71
2023/03/28 01:16:55;;;;;;;12.85;1.95;;;1.50;99.90;;;;;;5040181;28;20121;-73
2023/03/28 01:19:45;;;;;;;9.77;2.55;;;1.40;99.90;;;;;;5042964;28;20040;-71
2023/03/28 01:22:38;;;;;;;6.50;1.25;;;1.40;99.90;;;;;;5109648;28;20048;-71
2023/03/28 01:25:35;;;;;;;13.20;1.67;;;1.30;99.90;;;;;;5116940;28;20426;-71
2023/03/28 01:28:22;;;;;;;8.68;1.33;;;1.30;99.90;;;;;;5118675;28;20126;-71
2023/03/28 01:31:27;;;;;;;9.48;1.50;;;1.30;99.90;;;;;;5111691;28;20038;-69
2023/03/28 01:33:58;;;;;;;10.10;2.10;;;1.40;99.90;;;;;;5115806;28;20039;-71
2023/03/28 01:36:45;;;;;;;7.80;1.40;;;1.30;99.90;;;;;;5100593;28;20128;-70
2023/03/28 01:39:11;;;;;;;10.63;1.73;;;1.30;99.90;;;;;;5111177;27;20039;-71
2023/03/28 01:42:18;;;;;;;15.93;2.33;;;1.30;99.90;;;;;;5120589;27;20040;-71
2023/03/28 01:45:04;;;;;;;16.58;1.70;;;1.30;99.90;;;;;;5118234;27;20099;-70
2023/03/28 01:47:42;;;;;;;9.68;3.17;;;1.30;99.90;;;;;;5122142;27;20051;-71
2023/03/28 01:50:37;;;;;;;10.85;1.80;;;1.30;99.90;;;;;;5143565;27;20422;-70
2023/03/28 01:53:25;;;;;;;14.10;2.08;;;1.30;99.90;;;;;;5084219;28;20067;-71
2023/03/28 01:56:02;;;;;;;11.10;2.42;;;1.30;99.90;;;;;;5011488;28;20074;-73
2023/03/28 01:58:48;;;;;;;9.73;1.60;;;1.30;99.90;;;;;;5012908;28;20088;-71
2023/03/28 02:01:23;;;;;;;9.82;1.80;;;1.30;99.90;;;;;;5015849;28;20069;-71
2023/03/28 02:03:57;;;;;;;9.55;1.50;;;1.30;99.90;;;;;;5024528;28;20051;-72
2023/03/28 02:06:26;;;;;;;6.53;1.48;;;1.30;99.90;;;;;;5046024;28;20053;-73
2023/03/28 02:08:53;;;;;;;9.07;2.00;;;1.20;99.90;;;;;;5011753;28;20421;-71
2023/03/28 02:11:19;;;;;;;10.05;1.60;;;1.10;99.90;;;;;;5008577;28;20076;-72
2023/03/28 02:13:54;;;;;;;6.15;1.48;;;1.10;99.90;;;;;;5029769;28;20057;-72
2023/03/28 02:16:23;;;;;;;10.27;2.25;;;1.10;99.90;;;;;;4997248;28;20049;-72
2023/03/28 02:18:55;;;;;;;10.15;2.45;;;1.10;99.90;;;;;;5022578;28;20099;-70
2023/03/28 02:21:28;;;;;;;8.10;1.20;;;1.10;99.90;;;;;;5028934;28;20465;-70
2023/03/28 02:23:55;;;;;;;15.23;2.75;;;1.00;99.90;;;;;;5023492;28;20123;-70
2023/03/28 02:26:22;;;;;;;7.78;1.40;;;1.00;99.90;;;;;;5045032;28;20050;-70
2023/03/28 02:28:51;;;;;;;7.50;1.20;;;1.00;99.90;;;;;;5016488;28;20048;-71
2023/03/28 02:31:18;;;;;;;8.00;2.65;;;1.00;99.90;;;;;;5029417;28;20048;-71
2023/03/28 02:33:45;;;;;;;5.70;1.40;;;1.00;99.90;;;;;;5079804;27;20504;-71
2023/03/28 02:36:38;;;;;;;7.57;1.20;;;1.00;99.90;;;;;;5110708;27;20035;-70
2023/03/28 02:39:22;;;;;;;5.07;1.30;;;1.00;99.90;;;;;;5092902;28;20280;-71
2023/03/28 02:42:17;;;;;;;9.50;1.92;;;1.00;99.90;;;;;;5096168;27;20035;-68
2023/03/28 02:45:01;;;;;;;8.27;1.10;;;1.00;99.90;;;;;;5102523;28;20072;-71
2023/03/28 02:47:44;;;;;;;9.48;1.33;;;1.00;99.90;;;;;;5101377;28;20179;-71
2023/03/28 02:50:58;;;;;;;8.85;1.42;;;1.00;99.90;;;;;;5101157;28;20046;-71
2023/03/28 02:53:31;;;;;;;11.07;1.52;;;1.00;99.90;;;;;;5068705;28;20047;-72
2023/03/28 02:56:11;;;;;;;9.55;2.90;;;1.00;99.90;;;;;;5109807;27;20482;-70
2023/03/28 02:58:52;;;;;;;8.45;1.27;;;1.00;99.90;;;;;;5085222;28;20490;-72
2023/03/28 03:01:18;;;;;;;10.93;1.30;;;1.00;99.90;;;;;;5133577;27;20089;-71
2023/03/28 03:03:44;;;;;;;9.63;1.75;;;1.00;99.90;;;;;;5103784;27;20031;-71
2023/03/28 03:06:11;;;;;;;7.82;1.40;;;1.00;99.90;;;;;;5098397;27;20786;-72
2023/03/28 03:08:36;;;;;;;9.82;1.42;;;1.00;99.90;;;;;;5136730;27;20469;-70
2023/03/28 03:11:02;;;;;;;10.02;1.90;;;1.00;99.90;;;;;;5101995;28;20071;-71
2023/03/28 03:13:28;;;;;;;6.18;1.67;;;1.00;99.90;;;;;;5090355;27;20074;-70
2023/03/28 03:15:54;;;;;;;10.48;2.13;;;1.00;99.90;;;;;;5112170;27;20046;-70
2023/03/28 03:18:21;;;;;;;5.57;1.52;;;1.00;99.90;;;;;;5111423;27;20534;-71
2023/03/28 03:20:49;;;;;;;7.70;1.30;;;1.00;99.90;;;;;;5113560;27;20079;-70
2023/03/28 03:23:15;;;;;;;4.95;1.08;;;1.10;99.90;;;;;;5106704;27;20047;-71
2023/03/28 03:25:42;;;;;;;6.00;1.20;;;1.10;99.90;;;;;;5119319;27;20104;-71
2023/03/28 03:28:08;;;;;;;6.28;1.38;;;1.10;99.90;;;;;;5085542;28;20104;-71
2023/03/28 03:30:34;;;;;;;8.60;1.42;;;1.10;99.90;;;;;;5116072;27;20039;-70
2023/03/28 03:32:59;;;;;;;10.00;1.50;;;1.10;99.90;;;;;;5098971;28;20040;-71
2023/03/28 03:35:32;;;;;;;8.40;1.40;;;1.10;99.90;;;;;;5131426;27;20099;-71
2023/03/28 03:37:58;;;;;;;8.25;1.15;;;1.10;99.90;;;;;;5101976;27;20127;-72
2023/03/28 03:40:24;;;;;;;8.98;1.35;;;1.10;99.90;;;;;;5116833;27;20040;-70
2023/03/28 03:42:50;;;;;;;7.40;1.92;;;1.00;99.90;;;;;;5112479;27;20031;-71
2023/03/28 03:45:16;;;;;;;7.28;1.50;;;1.00;99.90;;;;;;5113450;27;20543;-73
2023/03/28 03:47:42;;;;;;;7.28;1.13;;;1.00;99.90;;;;;;5133812;27;20051;-70
2023/03/28 03:50:08;;;;;;;9.55;1.35;;;0.90;99.90;;;;;;5133488;27;20386;-70
2023/03/28 03:52:34;;;;;;;9.27;1.65;;;0.80;99.90;;;;;;5118183;27;20031;-71
2023/03/28 03:55:00;;;;;;;9.43;1.95;;;0.80;99.90;;;;;;5099987;27;20043;-70
2023/03/28 03:57:26;;;;;;;10.43;1.63;;;0.80;99.90;;;;;;5079851;27;20375;-71
2023/03/28 03:59:52;;;;;;;12.57;3.28;;;0.70;99.90;;;;;;5101348;27;20040;-70
2023/03/28 04:02:17;;;;;;;9.23;2.00;;;0.70;99.90;;;;;;5110896;27;20452;-72
2023/03/28 04:04:44;;;;;;;9.00;1.77;;;0.70;99.90;;;;;;5103523;27;20040;-72
2023/03/28 04:07:11;;;;;;;13.73;1.50;;;0.60;99.90;;;;;;5104058;27;20043;-71
2023/03/28 04:09:36;;;;;;;6.55;1.08;;;0.60;99.90;;;;;;5103317;28;20559;-73
2023/03/28 04:12:03;;;;;;;3.60;1.00;;;0.60;99.90;;;;;;5112931;27;20074;-71
2023/03/28 04:14:29;;;;;;;9.70;2.10;;;0.70;99.90;;;;;;5112940;27;20039;-70
2023/03/28 04:16:55;;;;;;;11.43;1.50;;;0.70;99.90;;;;;;5111810;27;20039;-70
2023/03/28 04:19:23;;;;;;;11.50;1.50;;;0.70;99.90;;;;;;5119327;27;20046;-73
2023/03/28 04:21:48;;;;;;;5.68;1.70;;;0.80;99.90;;;;;;5108287;27;20040;-71
2023/03/28 04:24:23;;;;;;;5.38;1.33;;;0.80;99.90;;;;;;5102987;28;20031;-72
2023/03/28 04:26:54;;;;;;;3.47;1.20;;;0.90;99.90;;;;;;5115454;27;20471;-70
2023/03/28 04:29:29;;;;;;;7.43;1.23;;;0.90;99.90;;;;;;5099819;27;20047;-70
2023/03/28 04:31:58;;;;;;;9.57;1.25;;;1.00;99.90;;;;;;5132948;27;20478;-71
2023/03/28 04:34:30;;;;;;;9.00;1.38;;;1.00;99.90;;;;;;5114724;27;20402;-69
2023/03/28 04:37:05;;;;;;;6.57;1.50;;;1.00;99.90;;;;;;5103187;27;20063;-71
2023/03/28 04:39:34;;;;;;;8.73;1.52;;;1.10;99.90;;;;;;5103244;27;20146;-70
2023/03/28 04:42:03;;;;;;;7.43;1.30;;;1.20;99.90;;;;;;5133258;27;20516;-71
2023/03/28 04:44:30;;;;;;;4.68;1.40;;;1.20;99.90;;;;;;5103148;27;20516;-71
2023/03/28 04:46:57;;;;;;;7.95;1.27;;;1.30;99.90;;;;;;5112275;27;20050;-72
2023/03/28 04:49:23;;;;;;;8.57;1.60;;;1.30;99.90;;;;;;5112590;27;20521;-70
2023/03/28 04:51:52;;;;;;;10.25;1.73;;;1.30;99.90;;;;;;5101408;27;20066;-72
2023/03/28 04:54:18;;;;;;;7.10;1.63;;;1.30;99.90;;;;;;5106039;27;20125;-71
2023/03/28 04:56:49;;;;;;;6.30;1.60;;;1.30;99.90;;;;;;5103868;27;20130;-73
2023/03/28 04:59:16;;;;;;;10.33;1.70;;;1.30;99.90;;;;;;5105017;27;20370;-73
2023/03/28 05:01:47;;;;;;;10.13;2.65;;;1.30;99.90;;;;;;5089938;28;20051;-72
2023/03/28 05:04:18;;;;;;;5.40;1.10;;;1.30;99.90;;;;;;5108159;27;20051;-72
2023/03/28 05:06:44;;;;;;;7.65;1.75;;;1.30;99.90;;;;;;5138747;27;20035;-71
2023/03/28 05:09:11;;;;;;;10.63;1.30;;;1.30;99.90;;;;;;5092993;27;20035;-71
2023/03/28 05:11:37;;;;;;;7.90;1.38;;;1.30;99.90;;;;;;5105602;27;20046;-71
2023/03/28 05:14:03;;;;;;;5.65;1.63;;;1.30;99.90;;;;;;5124685;27;20469;-72
2023/03/28 05:16:29;;;;;;;8.55;1.60;;;1.30;99.90;;;;;;5122510;27;20027;-71
2023/03/28 05:18:55;;;;;;;9.18;1.70;;;1.40;99.90;;;;;;5117127;27;20031;-70
2023/03/28 05:21:21;;;;;;;8.23;1.40;;;1.40;99.90;;;;;;5111184;27;20070;-72
2023/03/28 05:23:46;;;;;;;6.78;1.95;;;1.40;99.90;;;;;;5122583;27;20458;-70
2023/03/28 05:26:12;;;;;;;8.05;1.38;;;1.40;99.90;;;;;;5147494;27;20075;-72
2023/03/28 05:28:38;;;;;;;8.13;1.50;;;1.40;99.90;;;;;;5123998;27;20039;-73
2023/03/28 05:31:06;;;;;;;5.32;1.65;;;1.40;99.90;;;;;;5120655;27;20045;-69
2023/03/28 05:33:32;;;;;;;9.55;1.90;;;1.40;99.90;;;;;;5128988;27;20042;-69
2023/03/28 05:35:59;;;;;;;8.82;1.67;;;1.50;99.90;;;;;;5124442;27;20031;-68
2023/03/28 05:38:25;;;;;;;11.30;1.77;;;1.60;99.90;;;;;;5121449;27;20117;-69
2023/03/28 05:40:52;;;;;;;8.60;1.77;;;1.60;99.90;;;;;;5108382;27;20404;-71
2023/03/28 05:43:18;;;;;;;7.10;1.83;;;1.60;99.90;;;;;;5142816;27;20039;-70
2023/03/28 05:45:46;;;;;;;16.85;2.72;;;1.60;99.90;;;;;;5111372;27;20488;-71
2023/03/28 05:48:11;;;;;;;27.20;2.88;;;1.70;99.90;;;;;;5118593;27;20072;-70
2023/03/28 05:50:37;;;;;;;7.18;1.42;;;1.70;99.90;;;;;;5132345;27;20074;-69
2023/03/28 05:53:03;;;;;;;11.65;2.10;;;1.70;99.90;;;;;;5113300;27;20088;-69
2023/03/28 05:55:29;;;;;;;10.60;2.08;;;1.70;99.90;;;;;;5115396;27;20043;-69
2023/03/28 05:57:54;;;;;;;9.55;1.80;;;1.80;99.90;;;;;;5115614;27;20023;-69
2023/03/28 06:00:22;;;;;;;10.70;1.80;;;1.80;99.90;;;;;;5114345;27;20127;-70
2023/03/28 06:02:50;;;;;;;9.27;1.63;;;1.90;99.90;;;;;;5114872;27;20697;-70
2023/03/28 06:05:16;;;;;;;8.02;1.60;;;2.00;99.90;;;;;;5120812;27;20058;-71
2023/03/28 06:07:42;;;;;;;6.50;1.60;;;2.00;99.90;;;;;;5134814;27;20039;-70
2023/03/28 06:10:10;;;;;;;8.90;1.60;;;2.10;99.90;;;;;;5130875;27;20392;-71
2023/03/28 06:12:36;;;;;;;6.25;1.45;;;2.20;99.90;;;;;;5135767;27;20113;-70
2023/03/28 06:15:02;;;;;;;8.40;2.28;;;2.20;99.90;;;;;;5136021;27;20106;-69
2023/03/28 06:17:27;;;;;;;12.07;1.73;;;2.30;99.90;;;;;;5136524;27;20043;-70
2023/03/28 06:19:53;;;;;;;8.05;1.80;;;2.30;99.90;;;;;;5128987;27;20126;-69
2023/03/28 06:22:19;;;;;;;10.05;1.50;;;2.40;99.90;;;;;;5136219;27;20118;-70
2023/03/28 06:24:44;;;;;;;9.35;1.55;;;2.30;99.90;;;;;;5119667;27;20130;-70
2023/03/28 06:27:10;;;;;;;5.28;1.63;;;2.40;99.90;;;;;;5115831;27;20031;-71
2023/03/28 06:29:36;;;;;;;6.72;2.25;;;2.40;99.90;;;;;;5124072;27;20118;-72
2023/03/28 06:32:03;;;;;;;10.38;2.65;;;2.40;99.90;;;;;;5125438;27;20394;-71
2023/03/28 06:34:28;;;;;;;10.80;3.00;;;2.40;99.90;;;;;;5129623;27;20083;-72
2023/03/28 06:36:54;;;;;;;11.57;4.18;;;2.40;99.90;;;;;;5132470;27;20122;-69
2023/03/28 06:39:20;;;;;;;6.93;2.00;;;2.40;99.90;;;;;;5115209;27;20134;-72
2023/03/28 06:41:45;;;;;;;10.73;2.03;;;2.40;99.90;;;;;;5134438;27;20038;-71
2023/03/28 06:44:11;;;;;;;11.35;2.00;;;2.40;99.90;;;;;;5125086;27;20031;-70
2023/03/28 06:46:37;;;;;;;7.13;1.70;;;2.30;99.90;;;;;;5125457;27;20046;-70
2023/03/28 06:49:03;;;;;;;9.05;2.00;;;2.40;99.90;;;;;;5126046;27;20072;-69
2023/03/28 06:51:29;;;;;;;4.10;1.70;;;2.40;99.90;;;;;;5116827;27;20433;-70
2023/03/28 06:53:54;;;;;;;10.80;1.67;;;2.40;99.90;;;;;;5127480;27;20030;-70
2023/03/28 06:56:20;;;;;;;5.57;1.90;;;2.40;99.90;;;;;;5123732;27;20041;-70
2023/03/28 06:58:46;;;;;;;9.25;1.75;;;2.40;99.90;;;;;;5122125;27;20079;-71
2023/03/28 07:01:12;;;;;;;10.57;2.33;;;2.50;99.90;;;;;;5103201;27;20039;-71
2023/03/28 07:03:37;;;;;;;8.93;1.95;;;2.50;99.90;;;;;;5114924;27;20133;-70
2023/03/28 07:06:05;;;;;;;5.28;2.72;;;2.50;99.90;;;;;;5115175;27;20042;-71
2023/03/28 07:08:31;;;;;;;10.68;2.70;;;2.50;99.90;;;;;;5126432;27;20039;-69
2023/03/28 07:10:57;;;;;;;10.20;2.55;;;2.60;99.90;;;;;;5114605;27;20039;-70
2023/03/28 07:13:22;;;;;;;11.30;2.50;;;2.80;99.90;;;;;;5124456;27;20405;-70
2023/03/28 07:15:58;;;;;;;11.82;2.60;;;3.10;99.90;;;;;;5135163;27;20039;-69
2023/03/28 07:18:24;;;;;;;11.13;3.80;;;3.30;99.90;;;;;;5133656;27;20045;-69
2023/03/28 07:20:50;;;;;;;12.82;3.67;;;3.50;99.90;;;;;;5131912;27;20398;-71
2023/03/28 07:23:15;;;;;;;7.85;2.67;;;3.70;99.90;;;;;;5115783;27;20398;-71
2023/03/28 07:25:41;;;;;;;7.30;2.63;;;3.90;99.90;;;;;;5114828;27;20042;-69
2023/03/28 07:28:06;;;;;;;8.23;2.45;;;4.00;99.90;;;;;;5125822;27;20038;-69
2023/03/28 07:30:33;;;;;;;7.47;2.17;;;4.10;99.90;;;;;;5127078;27;20046;-70
2023/03/28 07:32:58;;;;;;;9.48;2.33;;;4.20;99.90;;;;;;5114467;27;20118;-72
2023/03/28 07:35:24;;;;;;;5.78;3.15;;;4.40;99.90;;;;;;5113979;27;20452;-69
2023/03/28 07:37:49;;;;;;;9.45;2.75;;;4.60;99.90;;;;;;5126162;27;20054;-71
2023/03/28 07:40:15;;;;;;;11.52;2.97;;;4.60;99.90;;;;;;5102583;27;20062;-72
2023/03/28 07:42:41;;;;;;;9.68;2.95;;;4.80;99.90;;;;;;5122437;27;20062;-69
2023/03/28 07:45:07;;;;;;;10.95;3.67;;;5.00;99.90;;;;;;5123019;27;20063;-71
2023/03/28 07:47:33;;;;;;;10.93;2.65;;;5.10;99.90;;;;;;5134282;27;20477;-69
2023/03/28 07:49:59;;;;;;;9.57;2.78;;;5.20;99.90;;;;;;5121163;27;20043;-70
2023/03/28 07:52:24;;;;;;;8.27;2.42;;;5.30;99.90;;;;;;5123953;27;20031;-70
2023/03/28 07:54:50;;;;;;;10.35;2.28;;;5.40;99.90;;;;;;5118635;27;20027;-70
2023/03/28 07:57:15;;;;;;;9.45;2.22;;;5.60;99.90;;;;;;5122106;27;20039;-70
2023/03/28 07:59:41;;;;;;;4.85;2.00;;;5.70;99.90;;;;;;5113935;27;20042;-71
2023/03/28 08:02:11;;;;;;;9.25;2.03;;;5.90;99.90;;;;;;5122065;27;20030;-69
2023/03/28 08:04:37;;;;;;;9.10;2.22;;;6.00;99.90;;;;;;5114616;27;20099;-69
2023/03/28 08:07:03;;;;;;;8.75;1.95;;;5.90;99.90;;;;;;5133607;27;20031;-69
2023/03/28 08:09:29;;;;;;;9.30;2.45;;;5.80;99.90;;;;;;5107354;27;20034;-69
2023/03/28 08:11:54;;;;;;;10.43;2.25;;;5.80;99.90;;;;;;5133932;27;20034;-70
2023/03/28 08:14:20;;;;;;;6.28;1.92;;;5.70;99.90;;;;;;5117990;27;20042;-70
2023/03/28 08:16:46;;;;;;;8.05;2.03;;;5.80;99.90;;;;;;5114995;27;20034;-70
2023/03/28 08:19:12;;;;;;;6.32;1.80;;;5.90;99.90;;;;;;5133687;27;20031;-70
2023/03/28 08:21:37;;;;;;;7.20;1.48;;;5.90;99.90;;;;;;5116299;27;20039;-69
2023/03/28 08:24:04;;;;;;;8.48;1.60;;;6.00;99.90;;;;;;5125939;27;20045;-70
2023/03/28 08:26:30;;;;;;;8.38;1.90;;;6.00;99.90;;;;;;5130635;27;20042;-69
2023/03/28 08:28:59;;;;;;;6.03;1.70;;;6.00;99.90;;;;;;5120038;27;20041;-71
2023/03/28 08:31:27;;;;;;;8.75;2.03;;;6.00;99.90;;;;;;5121135;27;20042;-70
2023/03/28 08:33:54;;;;;;;8.27;1.70;;;6.10;99.90;;;;;;5116698;27;20126;-70
2023/03/28 08:36:22;;;;;;;4.38;1.60;;;6.20;99.90;;;;;;5126665;27;20680;-71
2023/03/28 08:38:49;;;;;;;5.32;1.50;;;6.30;99.90;;;;;;5113144;27;20489;-71
2023/03/28 08:41:39;;;;;;;8.10;1.63;;;6.60;99.90;;;;;;5116287;27;20493;-69
2023/03/28 08:44:29;;;;;;;9.52;1.80;;;6.80;99.90;;;;;;5095861;27;20371;-72
2023/03/28 08:47:04;;;;;;;4.38;1.58;;;6.90;99.90;;;;;;5096494;27;20382;-70
2023/03/28 08:49:37;;;;;;;7.78;1.40;;;7.00;99.90;;;;;;5113161;27;20481;-70
2023/03/28 08:52:04;;;;;;;4.15;1.35;;;7.10;99.90;;;;;;5116366;27;20404;-71
2023/03/28 08:55:24;;;;;;;8.02;1.00;;;7.20;99.90;;;;;;5115796;27;20485;-71
2023/03/28 08:57:52;;;;;;;5.95;1.30;;;7.50;99.90;;;;;;5031281;28;20439;-72
2023/03/28 09:00:27;;;;;;;5.65;1.00;;;7.70;99.90;;;;;;5031245;28;20493;-70
2023/03/28 09:02:53;;;;;;;5.78;1.45;;;7.60;99.90;;;;;;5030121;28;20040;-71
2023/03/28 09:05:31;;;;;;;3.80;0.80;;;7.80;99.90;;;;;;5031253;28;20056;-70
2023/03/28 09:07:59;;;;;;;2.78;0.70;;;8.00;99.90;;;;;;5014751;28;20048;-70
2023/03/28 09:10:41;;;;;;;3.75;0.77;;;8.00;99.90;;;;;;5031012;28;20096;-70
2023/03/28 09:13:20;;;;;;;4.40;1.13;;;8.00;99.90;;;;;;5031167;28;20056;-68
2023/03/28 09:16:09;;;;;;;3.17;0.82;;;8.10;99.90;;;;;;5031139;28;20537;-70
2023/03/28 09:19:09;;;;;;;4.05;0.60;;;8.10;99.30;;;;;;5014472;28;20140;-70
2023/03/28 09:22:21;;;;;;;4.00;1.10;;;8.10;99.40;;;;;;5047333;28;20049;-70
2023/03/28 09:24:53;;;;;;;5.63;1.25;;;8.10;98.70;;;;;;5031042;28;20467;-68
2023/03/28 09:27:29;;;;;;;3.83;0.77;;;8.20;99.10;;;;;;5031137;28;20043;-69
2023/03/28 09:30:02;;;;;;;5.47;0.85;;;8.20;99.30;;;;;;5014380;28;20041;-69
2023/03/28 09:32:30;;;;;;;;;;;8.20;99.30;;;;;;5110944;27;20047;-70
2023/03/28 09:34:57;;;;;;;1.92;0.60;;;8.10;96.60;;;;;;5129531;27;20278;-70
2023/03/28 09:37:31;;;;;;;7.82;1.10;;;8.00;98.50;;;;;;5118103;28;20082;-70
2023/03/28 09:40:06;;;;;;;5.63;1.15;;;8.10;97.90;;;;;;5099700;27;20045;-70
2023/03/28 09:42:38;;;;;;;6.05;0.90;;;8.10;98.30;;;;;;5115963;27;20118;-71
2023/03/28 09:45:23;;;;;;;4.22;1.00;;;8.40;99.30;;;;;;5125951;27;20068;-70
2023/03/28 09:47:48;;;;;;;3.55;0.90;;;8.30;96.50;;;;;;5121330;27;20034;-70
2023/03/28 09:50:16;;;;;;;4.25;0.93;;;8.40;98.30;;;;;;5116106;27;20045;-70
2023/03/28 09:52:43;;;;;;;3.65;0.90;;;8.50;98.60;;;;;;5105174;27;20075;-69
2023/03/28 09:55:29;;;;;;;6.93;0.90;;;8.30;97.40;;;;;;5124471;27;20039;-69
2023/03/28 09:58:00;;;;;;;3.08;1.13;;;8.30;96.70;;;;;;5095647;27;20031;-70
2023/03/28 10:00:26;;;;;;;8.20;1.13;;;8.30;98.00;;;;;;5118762;27;20027;-70
2023/03/28 10:02:53;;;;;;;5.72;1.30;;;8.40;96.70;;;;;;5107581;27;20083;-68
2023/03/28 10:05:38;;;;;;;8.93;1.50;;;8.30;97.70;;;;;;5135802;27;20042;-70
2023/03/28 10:08:20;;;;;;;5.55;1.60;;;8.20;95.40;;;;;;5124432;27;20031;-70
2023/03/28 10:10:59;;;;;;;3.03;1.70;;;8.30;96.40;;;;;;5106741;27;20039;-69
2023/03/28 10:13:25;;;;;;;3.58;1.33;;;8.50;97.70;;;;;;5123090;27;20039;-69
2023/03/28 10:15:55;;;;;;;4.47;1.50;;;8.60;97.40;;;;;;5120514;27;20105;-70
2023/03/28 10:18:26;;;;;;;4.72;1.63;;;8.20;96.60;;;;;;5122167;27;20043;-70
2023/03/28 10:20:52;;;;;;;6.50;1.67;;;8.00;97.40;;;;;;5115853;27;20027;-70
2023/03/28 10:23:21;;;;;;;5.78;1.70;;;8.00;98.30;;;;;;5098937;27;20494;-69
2023/03/28 10:25:51;;;;;;;5.03;1.52;;;8.00;97.30;;;;;;5129263;27;20073;-70
2023/03/28 10:28:35;;;;;;;4.90;1.95;;;8.00;96.90;;;;;;5130878;27;20043;-70
2023/03/28 10:31:03;;;;;;;6.85;1.65;;;8.10;97.90;;;;;;5136476;27;20043;-70
2023/03/28 10:33:34;;;;;;;7.25;2.10;;;8.10;97.90;;;;;;5116703;27;20030;-71
2023/03/28 10:36:08;;;;;;;9.05;1.63;;;8.40;98.70;;;;;;5102980;27;20154;-70
2023/03/28 10:38:44;;;;;;;4.47;1.60;;;8.90;98.60;;;;;;5134686;27;20039;-69
2023/03/28 10:41:19;;;;;;;5.88;1.88;;;9.40;96.80;;;;;;5128490;27;20038;-71
2023/03/28 10:43:44;;;;;;;6.03;1.92;;;9.70;95.70;;;;;;5119071;27;20039;-71
2023/03/28 10:46:17;;;;;;;3.83;1.52;;;10.00;96.80;;;;;;5118116;27;20127;-70
2023/03/28 10:49:00;;;;;;;6.25;2.00;;;10.30;96.20;;;;;;5109922;27;20035;-69
2023/03/28 10:51:27;;;;;;;7.35;2.05;;;10.00;93.70;;;;;;5102783;27;20043;-70
2023/03/28 10:54:30;;;;;;;5.25;1.70;;;9.40;93.40;;;;;;5102747;27;20051;-70
2023/03/28 10:57:07;;;;;;;5.60;2.03;;;9.00;94.20;;;;;;5101429;27;20050;-71
2023/03/28 10:59:48;;;;;;;5.82;1.92;;;8.70;94.70;;;;;;5132277;27;20078;-69
2023/03/28 11:02:29;;;;;;;5.25;1.70;;;8.50;95.90;;;;;;5126495;27;20054;-70
2023/03/28 11:05:03;;;;;;;7.85;2.10;;;8.40;96.00;;;;;;5119773;27;20405;-69
2023/03/28 11:07:38;;;;;;;4.68;2.28;;;8.30;96.70;;;;;;5135603;27;20049;-70
2023/03/28 11:10:22;;;;;;;4.18;1.90;;;8.20;96.00;;;;;;5125836;27;20046;-71
2023/03/28 11:13:32;;;;;;;5.97;1.98;;;8.30;96.90;;;;;;5121130;27;20039;-70
2023/03/28 11:16:13;;;;;;;4.60;1.85;;;8.20;95.20;;;;;;5013603;28;20049;-69
2023/03/28 11:18:47;;;;;;;4.35;1.75;;;8.10;95.40;;;;;;5013451;28;20048;-70
2023/03/28 11:21:34;;;;;;;4.03;2.28;;;8.30;96.00;;;;;;4997028;28;20099;-70
2023/03/28 11:24:05;;;;;;;5.65;1.70;;;8.50;94.70;;;;;;4997519;28;20538;-69
2023/03/28 11:27:05;;;;;;;6.07;2.13;;;8.70;95.70;;;;;;5013280;28;20056;-70
2023/03/28 11:29:43;;;;;;;4.38;1.65;;;9.20;95.80;;;;;;5013277;28;20096;-69
2023/03/28 11:32:29;;;;;;;7.18;1.85;;;9.40;95.30;;;;;;5013154;28;20497;-69
2023/03/28 11:35:02;;;;;;;8.10;2.28;;;9.70;94.10;;;;;;5013205;28;20056;-70
2023/03/28 11:37:58;;;;;;;4.28;1.70;;;9.70;93.90;;;;;;5012895;28;20077;-69
2023/03/28 11:40:26;;;;;;;5.03;1.83;;;9.90;93.90;;;;;;5013273;28;20103;-70
2023/03/28 11:42:57;;;;;;;6.28;2.25;;;10.00;94.10;;;;;;5013159;28;20110;-70
2023/03/28 11:45:33;;;;;;;4.78;1.85;;;10.10;94.00;;;;;;5012955;28;20053;-70
2023/03/28 11:48:09;;;;;;;5.05;2.00;;;10.40;94.50;;;;;;5012124;28;20050;-69
2023/03/28 11:50:56;;;;;;;6.00;1.98;;;10.20;92.60;;;;;;5010749;28;20536;-70
2023/03/28 11:53:28;;;;;;;6.05;1.77;;;10.60;92.70;;;;;;5123067;27;20051;-69
2023/03/28 11:56:02;;;;;;;3.22;1.20;;;11.00;94.50;;;;;;5122671;27;20505;-70
2023/03/28 11:58:31;;;;;;;8.70;2.25;;;11.10;92.80;;;;;;5120077;27;20034;-71
2023/03/28 12:01:10;;;;;;;4.72;1.60;;;11.10;91.20;;;;;;5110562;27;20382;-70
2023/03/28 12:03:56;;;;;;;5.15;1.60;;;10.90;90.60;;;;;;5105912;27;20119;-70
2023/03/28 12:06:52;;;;;;;7.35;1.50;;;11.10;88.50;;;;;;5112586;27;20111;-70
2023/03/28 12:09:43;;;;;;;5.93;1.88;;;11.50;91.90;;;;;;5104660;27;20035;-70
2023/03/28 12:12:27;;;;;;;5.95;1.98;;;11.70;91.00;;;;;;5100757;27;20046;-71
2023/03/28 12:15:09;;;;;;;3.38;1.42;;;11.60;90.80;;;;;;5116131;27;20065;-69
2023/03/28 12:17:52;;;;;;;4.15;1.73;;;11.70;91.20;;;;;;5121426;27;20121;-71
2023/03/28 12:20:29;;;;;;;6.15;1.75;;;11.60;90.40;;;;;;5113900;27;20027;-70
2023/03/28 12:23:03;;;;;;;3.63;1.58;;;11.40;88.60;;;;;;5122428;27;20042;-70
2023/03/28 12:25:40;;;;;;;5.07;1.95;;;11.30;90.20;;;;;;5118045;27;20130;-70
2023/03/28 12:28:27;;;;;;;6.00;2.30;;;11.20;89.90;;;;;;5117781;27;20057;-71
2023/03/28 12:31:09;;;;;;;3.58;1.52;;;11.20;90.60;;;;;;5125558;27;20077;-71
2023/03/28 12:33:44;;;;;;;6.82;1.50;;;11.20;89.60;;;;;;5113923;27;20050;-70
2023/03/28 12:36:18;;;;;;;5.60;1.80;;;11.00;90.10;;;;;;5103889;27;20047;-70
2023/03/28 12:38:52;;;;;;;5.20;2.03;;;10.80;90.00;;;;;;5121912;27;20055;-71
2023/03/28 12:41:23;;;;;;;3.42;1.40;;;10.80;90.20;;;;;;5096814;27;20039;-69
2023/03/28 12:44:11;;;;;;;5.80;1.70;;;10.60;89.10;;;;;;5130513;27;20469;-70
2023/03/28 12:46:49;;;;;;;8.18;1.90;;;10.00;86.00;;;;;;5120836;27;20035;-70
2023/03/28 12:49:27;;;;;;;6.03;2.40;;;9.90;87.10;;;;;;5130627;27;20039;-70
2023/03/28 12:51:58;;;;;;;5.82;1.90;;;9.60;88.00;;;;;;5129693;27;20034;-70
2023/03/28 12:54:27;;;;;;;9.15;1.98;;;9.60;90.20;;;;;;5105756;27;20075;-70
2023/03/28 12:57:11;;;;;;;7.00;2.17;;;9.80;90.90;;;;;;5113499;27;20039;-71
2023/03/28 12:59:40;;;;;;;7.13;2.30;;;9.70;90.60;;;;;;5131649;27;20508;-72
2023/03/28 13:02:39;;;;;;;5.50;1.77;;;9.70;90.20;;;;;;5117525;27;20043;-71
2023/03/28 13:05:28;;;;;;;8.68;1.88;;;9.80;88.90;;;;;;5125357;27;20070;-70
2023/03/28 13:08:00;;;;;;;4.57;1.67;;;9.70;89.50;;;;;;5116989;27;20039;-70
2023/03/28 13:10:54;;;;;;;5.30;1.77;;;9.90;90.10;;;;;;5096406;27;20043;-69
2023/03/28 13:13:52;;;;;;;4.93;1.77;;;10.10;90.50;;;;;;5125443;27;20039;-71
2023/03/28 13:16:36;;;;;;;7.22;1.90;;;10.10;86.00;;;;;;5119557;27;20039;-68
2023/03/28 13:19:08;;;;;;;7.35;2.08;;;10.20;90.20;;;;;;5119394;27;20042;-69